createdAt,value
2023-04-08T00:02:14.972Z,101796.94
2023-04-08T00:04:43.627Z,101795.22
2023-04-08T00:07:12.792Z,101793.31
2023-04-08T00:09:42.339Z,101801.41
2023-04-08T00:12:10.797Z,101798.88
2023-04-08T00:14:40.920Z,101805.84
2023-04-08T00:17:10.411Z,101802.47
2023-04-08T00:19:38.639Z,101809.72
2023-04-08T00:22:06.925Z,101806.78
2023-04-08T00:24:36.191Z,101803.81
2023-04-08T00:27:06.051Z,101801.91
2023-04-08T00:29:34.258Z,101800.81
2023-04-08T00:32:02.950Z,101801.91
2023-04-08T00:34:31.220Z,101811.28
2023-04-08T00:36:59.488Z,101805.53
2023-04-08T00:39:27.768Z,101806.59
2023-04-08T00:41:56.275Z,101804.06
2023-04-08T00:44:25.924Z,101815.16
2023-04-08T00:46:54.160Z,101811.75
2023-04-08T00:49:22.402Z,101812.38
2023-04-08T00:51:50.696Z,101812.16
2023-04-08T00:54:19.030Z,101817.06
2023-04-08T00:56:47.512Z,101813.66
2023-04-08T00:59:16.158Z,101809.81
2023-04-08T01:01:56.496Z,101817.28
2023-04-08T01:04:34.574Z,101822.84
2023-04-08T01:07:12.770Z,101816.88
2023-04-08T01:09:46.126Z,101824.56
2023-04-08T01:12:21.136Z,101831.59
2023-04-08T01:14:52.705Z,101824.81
2023-04-08T01:17:24.118Z,101824.81
2023-04-08T01:19:52.789Z,101826.72
2023-04-08T01:22:28.431Z,101822.19
2023-04-08T01:25:03.919Z,101834.41
2023-04-08T01:27:34.268Z,101827.44
2023-04-08T01:30:04.453Z,101823.16
2023-04-08T01:32:35.256Z,101828.66
2023-04-08T01:35:04.670Z,101830.56
2023-04-08T01:37:34.284Z,101824.19
2023-04-08T01:40:03.728Z,101835.09
2023-04-08T01:42:35.216Z,101839.63
2023-04-08T01:45:04.836Z,101832.78
2023-04-08T01:47:35.341Z,101828.47
2023-04-08T01:50:04.556Z,101832.31
2023-04-08T01:52:36.386Z,101831.88
2023-04-08T01:55:05.724Z,101831.19
2023-04-08T01:57:39.216Z,101828.03
2023-04-08T02:00:11.225Z,101829.13
2023-04-08T02:02:43.721Z,101831.25
2023-04-08T02:05:12.069Z,101832.72
2023-04-08T02:07:40.440Z,101832.72
2023-04-08T02:10:09.850Z,101832.94
2023-04-08T02:12:40.030Z,101835.50
2023-04-08T02:15:09.883Z,101834.66
2023-04-08T02:17:46.138Z,101831.44
2023-04-08T02:20:20.532Z,101829.13
2023-04-08T02:23:07.155Z,101834.25
2023-04-08T02:25:40.122Z,101829.34
2023-04-08T02:28:13.354Z,101836.47
2023-04-08T02:30:46.713Z,101847.16
2023-04-08T02:33:15.896Z,101846.22
2023-04-08T02:35:46.207Z,101848.13
2023-04-08T02:38:14.465Z,101846.19
2023-04-08T02:40:43.143Z,101848.91
2023-04-08T02:43:12.714Z,101846.19
2023-04-08T02:45:44.331Z,101847.25
2023-04-08T02:48:12.626Z,101847.69
2023-04-08T02:50:41.233Z,101842.41
2023-04-08T02:53:10.919Z,101844.28
2023-04-08T02:55:40.117Z,101841.50
2023-04-08T02:58:08.379Z,101843.44
2023-04-08T03:00:39.711Z,101845.38
2023-04-08T03:03:08.186Z,101852.41
2023-04-08T03:05:36.502Z,101846.22
2023-04-08T03:08:04.886Z,101847.53
2023-04-08T03:10:33.068Z,101850.06
2023-04-08T03:13:01.348Z,101850.31
2023-04-08T03:15:29.575Z,101852.19
2023-04-08T03:17:59.211Z,101848.59
2023-04-08T03:20:27.664Z,101847.75
2023-04-08T03:22:56.078Z,101850.50
2023-04-08T03:25:24.281Z,101849.03
2023-04-08T03:27:52.496Z,101851.78
2023-04-08T03:30:20.888Z,101858.84
2023-04-08T03:32:49.275Z,101852.69
2023-04-08T03:35:18.914Z,101853.31
2023-04-08T03:37:47.757Z,101862.69
2023-04-08T03:40:15.975Z,101851.78
2023-04-08T03:42:44.193Z,101854.16
2023-04-08T03:45:12.606Z,101858.22
2023-04-08T03:47:40.948Z,101857.31
2023-04-08T03:50:10.665Z,101864.59
2023-04-08T03:52:40.251Z,101866.53
2023-04-08T03:55:09.660Z,101869.09
2023-04-08T03:57:37.874Z,101864.41
2023-04-08T04:00:07.973Z,101871.22
2023-04-08T04:02:36.324Z,101877.63
2023-04-08T04:05:05.033Z,101876.53
2023-04-08T04:07:33.251Z,101865.25
2023-04-08T04:10:02.974Z,101872.53
2023-04-08T04:12:31.262Z,101879.53
2023-04-08T04:14:59.454Z,101879.34
2023-04-08T04:17:27.756Z,101874.88
2023-04-08T04:19:56.417Z,101878.06
2023-04-08T04:22:24.650Z,101878.06
2023-04-08T04:24:52.820Z,101886.94
2023-04-08T04:27:22.434Z,101895.50
2023-04-08T04:29:50.647Z,101895.47
2023-04-08T04:32:19.490Z,101902.91
2023-04-08T04:34:47.732Z,101899.47
2023-04-08T04:37:16.312Z,101908.19
2023-04-08T04:39:44.520Z,101904.13
2023-04-08T04:42:12.985Z,101913.06
2023-04-08T04:44:42.557Z,101919.47
2023-04-08T04:47:10.789Z,101913.28
2023-04-08T04:49:40.209Z,101913.47
2023-04-08T04:52:08.480Z,101915.81
2023-04-08T04:54:36.709Z,101904.75
2023-04-08T04:57:05.061Z,101906.25
2023-04-08T04:59:33.276Z,101902.63
2023-04-08T05:02:02.908Z,101915.81
2023-04-08T05:04:31.539Z,101902.34
2023-04-08T05:07:01.474Z,101910.22
2023-04-08T05:09:31.069Z,101912.56
2023-04-08T05:11:59.317Z,101920.69
2023-04-08T05:14:30.364Z,101919.59
2023-04-08T05:16:58.814Z,101924.56
2023-04-08T05:19:28.402Z,101926.06
2023-04-08T05:21:56.602Z,101935.06
2023-04-08T05:24:24.903Z,101935.31
2023-04-08T05:26:53.426Z,101943.81
2023-04-08T05:29:22.071Z,101941.28
2023-04-08T05:31:50.524Z,101949.75
2023-04-08T05:34:23.030Z,101941.84
2023-04-08T05:36:52.991Z,101944.41
2023-04-08T05:39:21.305Z,101948.66
2023-04-08T05:41:49.497Z,101948.19
2023-04-08T05:44:17.746Z,101946.69
2023-04-08T05:46:45.967Z,101956.91
2023-04-08T05:49:14.247Z,101956.31
2023-04-08T05:51:42.463Z,101961.19
2023-04-08T05:54:12.104Z,101959.66
2023-04-08T05:56:40.286Z,101960.78
2023-04-08T05:59:08.590Z,101970.97
2023-04-08T06:01:36.913Z,101974.19
2023-04-08T06:04:05.537Z,101970.56
2023-04-08T06:06:33.845Z,101977.38
2023-04-08T06:09:02.049Z,101974.19
2023-04-08T06:11:31.593Z,101967.16
2023-04-08T06:13:59.823Z,101972.25
2023-04-08T06:16:28.074Z,101978.59
2023-04-08T06:18:56.328Z,101976.31
2023-04-08T06:21:24.520Z,101981.84
2023-04-08T06:23:52.733Z,101983.34
2023-04-08T06:26:20.965Z,101995.47
2023-04-08T06:28:50.848Z,101982.94
2023-04-08T06:31:19.303Z,101988.69
2023-04-08T06:33:47.537Z,101992.50
2023-04-08T06:36:16.313Z,101995.50
2023-04-08T06:38:44.549Z,101993.56
2023-04-08T06:41:12.766Z,101993.34
2023-04-08T06:43:41.155Z,102007.81
2023-04-08T06:46:10.988Z,101999.28
2023-04-08T06:48:40.228Z,101996.72
2023-04-08T06:51:08.856Z,102004.78
2023-04-08T06:53:37.082Z,102005.41
2023-04-08T06:56:05.845Z,102014.59
2023-04-08T06:58:34.105Z,102009.47
2023-04-08T07:01:03.325Z,102015.88
2023-04-08T07:03:33.016Z,102015.25
2023-04-08T07:06:01.241Z,102017.59
2023-04-08T07:08:29.446Z,102015.66
2023-04-08T07:10:57.690Z,102027.16
2023-04-08T07:13:25.889Z,102024.84
2023-04-08T07:15:54.201Z,102026.09
2023-04-08T07:18:22.561Z,102034.19
2023-04-08T07:20:54.190Z,102029.56
2023-04-08T07:23:22.918Z,102039.94
2023-04-08T07:25:51.527Z,102036.13
2023-04-08T07:28:19.762Z,102035.75
2023-04-08T07:30:48.047Z,102034.22
2023-04-08T07:33:16.556Z,102045.44
2023-04-08T07:35:47.585Z,102042.69
2023-04-08T07:38:17.209Z,102053.31
2023-04-08T07:40:45.431Z,102048.50
2023-04-08T07:43:13.617Z,102051.81
2023-04-08T07:45:42.179Z,102055.97
2023-04-08T07:48:10.455Z,102061.03
2023-04-08T07:51:08.991Z,102070.66
2023-04-08T07:53:28.579Z,102068.31
2023-04-08T07:55:56.829Z,102067.66
2023-04-08T07:58:25.388Z,102066.81
2023-04-08T08:00:54.504Z,102077.44
2023-04-08T08:03:22.826Z,102076.16
2023-04-08T08:05:51.180Z,102071.63
2023-04-08T08:08:19.353Z,102073.00
2023-04-08T08:10:48.896Z,102081.47
2023-04-08T08:13:21.202Z,102091.50
2023-04-08T08:15:54.536Z,102097.84
2023-04-08T08:18:22.748Z,102091.03
2023-04-08T08:20:51.067Z,102096.81
2023-04-08T08:23:19.268Z,102099.75
2023-04-08T08:25:48.816Z,102100.69
2023-04-08T08:28:16.950Z,102108.75
2023-04-08T08:30:45.127Z,102104.03
2023-04-08T08:33:13.300Z,102104.53
2023-04-08T08:35:41.554Z,102108.97
2023-04-08T08:38:09.709Z,102110.88
2023-04-08T08:40:37.963Z,102117.88
2023-04-08T08:43:07.694Z,102110.41
2023-04-08T08:45:35.877Z,102117.47
2023-04-08T08:48:04.656Z,102105.50
2023-04-08T08:50:34.007Z,102108.22
2023-04-08T08:53:02.558Z,102113.16
2023-04-08T08:55:53.155Z,102108.53
2023-04-08T08:58:23.462Z,102111.34
2023-04-08T09:00:51.649Z,102122.41
2023-04-08T09:03:21.920Z,102117.44
2023-04-08T09:05:52.227Z,102108.72
2023-04-08T09:08:31.884Z,102109.84
2023-04-08T09:11:16.980Z,102121.50
2023-04-08T09:13:47.761Z,102116.84
2023-04-08T09:16:18.906Z,102111.94
2023-04-08T09:18:49.684Z,102117.03
2023-04-08T09:21:19.281Z,102116.63
2023-04-08T09:23:49.640Z,102122.94
2023-04-08T09:26:19.780Z,102122.44
2023-04-08T09:29:11.087Z,102129.78
2023-04-08T09:31:47.607Z,102134.28
2023-04-08T09:34:19.679Z,102127.31
2023-04-08T09:36:49.153Z,102142.50
2023-04-08T09:39:17.715Z,102145.22
2023-04-08T09:41:48.928Z,102143.47
2023-04-08T09:44:20.733Z,102145.91
2023-04-08T09:47:02.499Z,102142.16
2023-04-08T09:49:37.045Z,102143.22
2023-04-08T09:52:10.988Z,102146.91
2023-04-08T09:54:49.174Z,102144.13
2023-04-08T09:57:41.688Z,102144.72
2023-04-08T10:00:15.032Z,102149.41
2023-04-08T10:03:02.212Z,102139.94
2023-04-08T10:05:33.047Z,102141.72
2023-04-08T10:08:02.052Z,102128.94
2023-04-08T10:10:30.963Z,102125.47
2023-04-08T10:12:59.909Z,102128.75
2023-04-08T10:15:31.339Z,102123.94
2023-04-08T10:18:36.533Z,102141.31
2023-04-08T10:21:05.299Z,102126.94
2023-04-08T10:23:59.130Z,102121.16
2023-04-08T10:26:38.883Z,102132.41
2023-04-08T10:29:34.778Z,102133.13
2023-04-08T10:32:04.750Z,102132.59
2023-04-08T10:34:33.275Z,102128.84
2023-04-08T10:37:02.258Z,102135.44
2023-04-08T10:39:31.724Z,102128.56
2023-04-08T10:42:02.665Z,102131.75
2023-04-08T10:44:31.198Z,102132.16
2023-04-08T10:47:00.287Z,102131.09
2023-04-08T10:49:37.013Z,102136.88
2023-04-08T10:52:10.019Z,102137.72
2023-04-08T10:54:39.591Z,102128.56
2023-04-08T10:57:08.667Z,102125.78
2023-04-08T10:59:37.204Z,102121.50
2023-04-08T11:02:05.858Z,102124.66
2023-04-08T11:04:42.640Z,102122.72
2023-04-08T11:07:11.361Z,102121.06
2023-04-08T11:09:41.103Z,102127.94
2023-04-08T11:12:09.870Z,102121.94
2023-04-08T11:14:39.277Z,102126.03
2023-04-08T11:17:08.775Z,102121.34
2023-04-08T11:19:39.277Z,102126.97
2023-04-08T11:22:09.456Z,102120.59
2023-04-08T11:24:38.604Z,102121.22
2023-04-08T11:27:08.441Z,102118.84
2023-04-08T11:29:38.184Z,102122.53
2023-04-08T11:32:06.867Z,102118.84
2023-04-08T11:34:40.101Z,102115.63
2023-04-08T11:37:09.960Z,102110.22
2023-04-08T11:39:44.062Z,102121.28
2023-04-08T11:42:28.524Z,102115.38
2023-04-08T11:44:57.247Z,102121.97
2023-04-08T11:47:33.532Z,102114.28
2023-04-08T11:50:02.654Z,102121.50
2023-04-08T11:52:49.617Z,102114.72
2023-04-08T11:55:25.069Z,102124.19
2023-04-08T11:57:54.131Z,102132.50
2023-04-08T12:00:23.723Z,102134.06
2023-04-08T12:02:53.754Z,102125.59
2023-04-08T12:05:22.547Z,102134.09
2023-04-08T12:07:52.417Z,102134.16
2023-04-08T12:10:21.119Z,102137.94
2023-04-08T12:12:49.705Z,102137.53
2023-04-08T12:15:18.500Z,102130.66
2023-04-08T12:17:47.149Z,102137.63
2023-04-08T12:20:17.121Z,102134.31
2023-04-08T12:22:45.637Z,102137.94
2023-04-08T12:25:15.470Z,102137.25
2023-04-08T12:27:43.983Z,102127.94
2023-04-08T12:30:14.831Z,102130.03
2023-04-08T12:32:46.124Z,102131.72
2023-04-08T12:35:15.042Z,102136.84
2023-04-08T12:37:43.568Z,102130.88
2023-04-08T12:40:12.323Z,102130.88
2023-04-08T12:42:42.738Z,102132.16
2023-04-08T12:45:11.548Z,102130.44
2023-04-08T12:47:40.115Z,102132.81
2023-04-08T12:50:10.439Z,102134.63
2023-04-08T12:52:39.093Z,102133.06
2023-04-08T12:55:08.437Z,102132.59
2023-04-08T12:57:36.938Z,102128.75
2023-04-08T13:00:08.014Z,102120.41
2023-04-08T13:02:36.564Z,102123.34
2023-04-08T13:05:05.453Z,102121.72
2023-04-08T13:07:33.915Z,102124.09
2023-04-08T13:10:03.623Z,102123.91
2023-04-08T13:12:32.254Z,102126.53
2023-04-08T13:15:01.401Z,102126.59
2023-04-08T13:17:31.248Z,102116.22
2023-04-08T13:19:59.733Z,102123.25
2023-04-08T13:22:28.199Z,102122.41
2023-04-08T13:24:56.980Z,102120.06
2023-04-08T13:27:25.428Z,102120.66
2023-04-08T13:29:53.935Z,102124.94
2023-04-08T13:32:22.433Z,102111.28
2023-04-08T13:34:52.308Z,102115.16
2023-04-08T13:37:20.785Z,102114.72
2023-04-08T13:39:49.287Z,102109.81
2023-04-08T13:42:17.752Z,102109.00
2023-04-08T13:44:46.244Z,102104.50
2023-04-08T13:47:14.722Z,102109.84
2023-04-08T13:49:43.197Z,102110.00
2023-04-08T13:52:13.011Z,102105.25
2023-04-08T13:54:41.523Z,102102.81
2023-04-08T13:57:10.029Z,102112.78
2023-04-08T13:59:38.528Z,102109.47
2023-04-08T14:02:07.492Z,102109.41
2023-04-08T14:04:36.542Z,102106.47
2023-04-08T14:07:05.043Z,102103.25
2023-04-08T14:09:35.850Z,102107.41
2023-04-08T14:12:04.353Z,102108.13
2023-04-08T14:14:33.087Z,102106.38
2023-04-08T14:17:01.621Z,102103.44
2023-04-08T14:19:30.112Z,102099.69
2023-04-08T14:21:58.601Z,102097.31
2023-04-08T14:24:27.130Z,102098.72
2023-04-08T14:26:57.891Z,102100.66
2023-04-08T14:29:27.684Z,102092.91
2023-04-08T14:31:56.833Z,102093.97
2023-04-08T14:34:25.913Z,102096.25
2023-04-08T14:36:54.410Z,102095.28
2023-04-08T14:39:22.906Z,102108.22
2023-04-08T14:41:51.366Z,102094.09
2023-04-08T14:44:21.201Z,102095.41
2023-04-08T14:46:49.747Z,102098.94
2023-04-08T14:49:18.334Z,102094.47
2023-04-08T14:51:46.774Z,102096.88
2023-04-08T14:54:16.854Z,102095.66
2023-04-08T14:56:45.495Z,102100.31
2023-04-08T14:59:13.970Z,102097.66
2023-04-08T15:01:44.967Z,102101.72
2023-04-08T15:04:13.627Z,102103.81
2023-04-08T15:06:42.270Z,102103.25
2023-04-08T15:09:11.104Z,102100.84
2023-04-08T15:11:39.642Z,102097.44
2023-04-08T15:14:08.162Z,102097.84
2023-04-08T15:16:36.628Z,102095.94
2023-04-08T15:19:06.451Z,102098.13
2023-04-08T15:21:34.980Z,102091.53
2023-04-08T15:24:03.455Z,102096.94
2023-04-08T15:26:32.680Z,102096.78
2023-04-08T15:29:01.484Z,102100.00
2023-04-08T15:31:30.053Z,102105.47
2023-04-08T15:33:59.153Z,102101.47
2023-04-08T15:36:29.238Z,102104.44
2023-04-08T15:38:57.748Z,102103.56
2023-04-08T15:41:26.283Z,102101.22
2023-04-08T15:43:55.012Z,102105.69
2023-04-08T15:46:23.580Z,102106.84
2023-04-08T15:48:52.328Z,102107.72
2023-04-08T15:51:21.251Z,102110.25
2023-04-08T15:53:51.671Z,102105.38
2023-04-08T15:56:20.933Z,102117.69
2023-04-08T15:58:49.567Z,102109.06
2023-04-08T16:01:18.806Z,102108.81
2023-04-08T16:03:47.481Z,102107.63
2023-04-08T16:06:16.352Z,102104.63
2023-04-08T16:08:46.895Z,102100.59
2023-04-08T16:11:17.616Z,102101.44
2023-04-08T16:13:46.249Z,102095.53
2023-04-08T16:16:14.753Z,102092.97
2023-04-08T16:18:46.066Z,102096.31
2023-04-08T16:21:15.906Z,102089.13
2023-04-08T16:23:44.378Z,102097.13
2023-04-08T16:26:12.872Z,102093.28
2023-04-08T16:28:42.727Z,102095.97
2023-04-08T16:31:11.445Z,102104.47
2023-04-08T16:33:40.082Z,102097.50
2023-04-08T16:36:08.605Z,102100.00
2023-04-08T16:38:37.150Z,102101.09
2023-04-08T16:41:06.451Z,102105.34
2023-04-08T16:43:34.955Z,102109.19
2023-04-08T16:46:12.965Z,102106.63
2023-04-08T16:48:42.001Z,102106.63
2023-04-08T16:51:10.766Z,102094.91
2023-04-08T16:53:39.614Z,102103.22
2023-04-08T16:56:14.970Z,102105.81
2023-04-08T16:58:43.526Z,102105.13
2023-04-08T17:01:14.583Z,102111.31
2023-04-08T17:03:43.204Z,102110.69
2023-04-08T17:06:13.680Z,102117.03
2023-04-08T17:08:43.554Z,102115.94
2023-04-08T17:11:14.201Z,102110.00
2023-04-08T17:13:44.323Z,102111.75
2023-04-08T17:16:16.220Z,102110.25
2023-04-08T17:18:45.257Z,102120.63
2023-04-08T17:21:15.634Z,102114.28
2023-04-08T17:23:44.201Z,102104.97
2023-04-08T17:26:12.902Z,102112.56
2023-04-08T17:28:43.147Z,102109.75
2023-04-08T17:31:11.825Z,102107.63
2023-04-08T17:33:41.621Z,102112.09
2023-04-08T17:36:10.158Z,102117.22
2023-04-08T17:38:40.013Z,102110.22
2023-04-08T17:41:10.134Z,102121.25
2023-04-08T17:43:38.693Z,102112.56
2023-04-08T17:46:07.619Z,102125.34
2023-04-08T17:48:36.511Z,102122.81
2023-04-08T17:51:07.662Z,102125.34
2023-04-08T17:53:36.185Z,102136.25
2023-04-08T17:56:05.862Z,102126.59
2023-04-08T17:58:34.376Z,102132.78
2023-04-08T18:01:02.899Z,102135.94
2023-04-08T18:03:31.690Z,102146.25
2023-04-08T18:06:00.491Z,102146.78
2023-04-08T18:08:30.334Z,102142.72
2023-04-08T18:10:58.854Z,102146.13
2023-04-08T18:13:27.328Z,102145.97
2023-04-08T18:15:55.830Z,102152.97
2023-04-08T18:18:25.016Z,102153.31
2023-04-08T18:20:53.570Z,102158.78
2023-04-08T18:23:22.019Z,102156.50
2023-04-08T18:25:52.021Z,102166.63
2023-04-08T18:28:22.472Z,102158.84
2023-04-08T18:30:53.262Z,102153.97
2023-04-08T18:33:21.971Z,102164.38
2023-04-08T18:35:52.656Z,102158.59
2023-04-08T18:38:21.922Z,102158.06
2023-04-08T18:40:52.801Z,102158.03
2023-04-08T18:43:21.546Z,102159.81
2023-04-08T18:45:50.098Z,102158.44
2023-04-08T18:48:18.571Z,102164.06
2023-04-08T18:50:47.094Z,102168.34
2023-04-08T18:53:15.566Z,102171.31
2023-04-08T18:55:44.837Z,102168.03
2023-04-08T18:58:14.780Z,102168.59
2023-04-08T19:00:43.828Z,102163.84
2023-04-08T19:03:12.472Z,102160.75
2023-04-08T19:05:41.074Z,102165.94
2023-04-08T19:08:09.534Z,102167.63
2023-04-08T19:10:38.051Z,102172.06
2023-04-08T19:13:06.715Z,102171.28
2023-04-08T19:15:37.041Z,102174.19
2023-04-08T19:18:05.663Z,102172.81
2023-04-08T19:20:34.607Z,102171.38
2023-04-08T19:23:03.470Z,102171.91
2023-04-08T19:25:31.918Z,102176.41
2023-04-08T19:28:00.514Z,102180.69
2023-04-08T19:30:29.084Z,102180.47
2023-04-08T19:32:59.791Z,102182.81
2023-04-08T19:35:28.295Z,102174.25
2023-04-08T19:37:56.770Z,102182.13
2023-04-08T19:40:25.324Z,102191.59
2023-04-08T19:42:54.406Z,102182.53
2023-04-08T19:45:22.914Z,102181.19
2023-04-08T19:47:51.394Z,102186.97
2023-04-08T19:50:22.307Z,102183.34
2023-04-08T19:52:50.799Z,102190.13
2023-04-08T19:55:19.364Z,102184.31
2023-04-08T19:57:48.050Z,102184.63
2023-04-08T20:00:16.670Z,102177.97
2023-04-08T20:02:45.544Z,102189.50
2023-04-08T20:05:16.292Z,102185.06
2023-04-08T20:07:46.208Z,102185.44
2023-04-08T20:10:14.762Z,102186.69
2023-04-08T20:12:43.345Z,102195.03
2023-04-08T20:15:23.778Z,102197.38
2023-04-08T20:17:54.032Z,102192.09
2023-04-08T20:20:22.800Z,102193.34
2023-04-08T20:22:53.099Z,102192.09
2023-04-08T20:25:21.741Z,102196.13
2023-04-08T20:27:50.210Z,102201.25
2023-04-08T20:30:18.731Z,102200.81
2023-04-08T20:32:47.256Z,102203.34
2023-04-08T20:35:15.751Z,102204.84
2023-04-08T20:37:44.258Z,102198.03
2023-04-08T20:40:15.821Z,102209.31
2023-04-08T20:42:45.447Z,102203.94
2023-04-08T20:45:14.234Z,102201.22
2023-04-08T20:47:44.608Z,102205.50
2023-04-08T20:50:13.674Z,102198.91
2023-04-08T20:52:42.198Z,102208.03
2023-04-08T20:55:11.245Z,102202.91
2023-04-08T20:57:41.795Z,102196.13
2023-04-08T21:00:12.840Z,102189.50
2023-04-08T21:02:41.461Z,102200.16
2023-04-08T21:05:10.643Z,102195.69
2023-04-08T21:07:44.278Z,102201.00
2023-04-08T21:10:14.214Z,102205.69
2023-04-08T21:12:44.848Z,102194.69
2023-04-08T21:15:13.380Z,102201.97
2023-04-08T21:17:41.903Z,102201.06
2023-04-08T21:20:11.645Z,102198.06
2023-04-08T21:22:40.361Z,102197.53
2023-04-08T21:25:09.443Z,102206.94
2023-04-08T21:27:37.969Z,102199.81
2023-04-08T21:30:09.057Z,102200.47
2023-04-08T21:32:37.606Z,102194.63
2023-04-08T21:35:06.569Z,102199.81
2023-04-08T21:37:35.413Z,102193.75
2023-04-08T21:40:04.989Z,102205.31
2023-04-08T21:42:33.504Z,102203.88
2023-04-08T21:45:02.012Z,102205.31
2023-04-08T21:47:32.083Z,102204.72
2023-04-08T21:50:00.744Z,102200.66
2023-04-08T21:52:30.035Z,102207.94
2023-04-08T21:54:58.834Z,102208.53
2023-04-08T21:57:27.424Z,102202.38
2023-04-08T21:59:55.880Z,102207.50
2023-04-08T22:02:24.676Z,102196.34
2023-04-08T22:04:54.641Z,102203.19
2023-04-08T22:07:23.150Z,102206.38
2023-04-08T22:09:51.826Z,102203.72
2023-04-08T22:12:20.445Z,102198.22
2023-04-08T22:14:48.909Z,102199.75
2023-04-08T22:17:17.415Z,102193.50
2023-04-08T22:19:45.855Z,102194.09
2023-04-08T22:22:15.865Z,102200.41
2023-04-08T22:24:44.371Z,102193.03
2023-04-08T22:27:12.850Z,102200.22
2023-04-08T22:29:41.317Z,102197.63
2023-04-08T22:32:09.838Z,102196.09
2023-04-08T22:34:38.310Z,102193.34
2023-04-08T22:37:06.833Z,102193.75
2023-04-08T22:39:36.694Z,102200.69
2023-04-08T22:42:05.204Z,102207.78
2023-04-08T22:44:33.666Z,102196.81
2023-04-08T22:47:02.191Z,102199.44
2023-04-08T22:49:30.741Z,102194.16
2023-04-08T22:51:59.221Z,102202.72
2023-04-08T22:54:27.754Z,102194.75
2023-04-08T22:56:57.877Z,102190.53
2023-04-08T22:59:26.339Z,102190.63
2023-04-08T23:01:54.909Z,102185.22
2023-04-08T23:04:23.477Z,102184.47
2023-04-08T23:06:51.996Z,102186.09
2023-04-08T23:09:20.729Z,102183.38
2023-04-08T23:11:49.230Z,102188.13
2023-04-08T23:14:19.066Z,102180.75
2023-04-08T23:16:47.533Z,102164.31
2023-04-08T23:19:16.296Z,102175.44
2023-04-08T23:21:44.759Z,102170.25
2023-04-08T23:24:13.353Z,102169.47
2023-04-08T23:26:41.834Z,102171.41
2023-04-08T23:29:10.624Z,102172.81
2023-04-08T23:31:40.596Z,102171.25
2023-04-08T23:34:09.168Z,102171.91
2023-04-08T23:36:38.293Z,102163.63
2023-04-08T23:39:06.494Z,102170.09
2023-04-08T23:41:34.650Z,102172.91
2023-04-08T23:44:02.876Z,102164.19
2023-04-08T23:46:31.304Z,102156.97
2023-04-08T23:49:00.890Z,102163.72
2023-04-08T23:51:29.092Z,102158.91
2023-04-08T23:53:57.252Z,102166.69
2023-04-08T23:56:25.921Z,102171.44
2023-04-08T23:58:54.402Z,102168.84
